BAW378 EGLL-LATI
Flight info
| Callsign | BAW378 |
|---|---|
| Flight time | 2h 52m |
| Altitude | 39000 |
| Route | DET L6 DVR L9 KONAN UL607 KOK DCT SISGA DCT RITAX DCT KRH DCT UTABA DCT BEMKI DCT ELMEM DCT DIRAB DCT RASUG DCT OKLAX DCT SIPAL DCT TIKSA DCT BALHA DCT MOKUN DCT TIBRI DCT PETAK |
| Aircraft | A20N/M-SDE2E3FGHIRWXY/LB1 |
Departure
| Time | 2026-05-08 19:26 |
|---|---|
| Airport | London Heathrow Airport (EGLL) |
Arrival
| Time | 2026-05-08 22:19 |
|---|---|
| Airport | Tirana International Airport Mother Teresa (LATI) |
| Time | Latitude | Longitude | Altitude | Speed | Heading |
|---|---|---|---|---|---|
| 2026-05-08 18:48 | 51.47402 | -0.48833 | 86 ft | 0 kts | 180° |
| 2026-05-08 19:15 | 51.47422 | -0.48833 | 86 ft | 6 kts | 180° |
| 2026-05-08 19:15 | 51.47462 | -0.48834 | 83 ft | 5 kts | 175° |
| 2026-05-08 19:15 | 51.47481 | -0.48840 | 86 ft | 2 kts | 141° |
| 2026-05-08 19:16 | 51.47488 | -0.48853 | 85 ft | 2 kts | 102° |
| 2026-05-08 19:16 | 51.47489 | -0.48871 | 86 ft | 2 kts | 94° |
| 2026-05-08 19:16 | 51.47489 | -0.48873 | 86 ft | 0 kts | 94° |
| 2026-05-08 19:20 | 51.47489 | -0.48872 | 86 ft | 0 kts | 94° |
| 2026-05-08 19:20 | 51.47486 | -0.48806 | 83 ft | 10 kts | 94° |
| 2026-05-08 19:20 | 51.47487 | -0.48657 | 85 ft | 16 kts | 89° |
| 2026-05-08 19:21 | 51.47488 | -0.48473 | 83 ft | 16 kts | 90° |
| 2026-05-08 19:21 | 51.47452 | -0.48367 | 84 ft | 12 kts | 161° |
| 2026-05-08 19:21 | 51.47365 | -0.48365 | 82 ft | 13 kts | 180° |
| 2026-05-08 19:21 | 51.47271 | -0.48361 | 82 ft | 15 kts | 178° |
| 2026-05-08 19:22 | 51.47152 | -0.48360 | 82 ft | 20 kts | 179° |
| 2026-05-08 19:22 | 51.46985 | -0.48361 | 82 ft | 26 kts | 179° |
| 2026-05-08 19:22 | 51.46836 | -0.48357 | 84 ft | 20 kts | 179° |
| 2026-05-08 19:22 | 51.46748 | -0.48392 | 83 ft | 6 kts | 260° |
| 2026-05-08 19:23 | 51.46740 | -0.48526 | 82 ft | 20 kts | 272° |
| 2026-05-08 19:23 | 51.46730 | -0.48727 | 86 ft | 12 kts | 225° |
| 2026-05-08 19:23 | 51.46661 | -0.48752 | 83 ft | 10 kts | 180° |
| 2026-05-08 19:23 | 51.46656 | -0.48752 | 83 ft | 0 kts | 181° |
| 2026-05-08 19:24 | 51.46643 | -0.48753 | 83 ft | 8 kts | 184° |
| 2026-05-08 19:24 | 51.46596 | -0.48771 | 85 ft | 0 kts | 196° |
| 2026-05-08 19:25 | 51.46568 | -0.48784 | 84 ft | 12 kts | 196° |
| 2026-05-08 19:25 | 51.46482 | -0.48705 | 86 ft | 18 kts | 107° |
| 2026-05-08 19:25 | 51.46480 | -0.48625 | 83 ft | 0 kts | 87° |
| 2026-05-08 19:25 | 51.46480 | -0.48623 | 83 ft | 3 kts | 87° |
| 2026-05-08 19:26 | 51.46482 | -0.48201 | 83 ft | 78 kts | 90° |
| 2026-05-08 19:26 | 51.46487 | -0.46947 | 90 ft | 143 kts | 89° |
| 2026-05-08 19:26 | 51.46502 | -0.45377 | 798 ft | 138 kts | 89° |
| 2026-05-08 19:26 | 51.46529 | -0.43798 | 1469 ft | 145 kts | 90° |
| 2026-05-08 19:27 | 51.46552 | -0.42154 | 2169 ft | 154 kts | 92° |
| 2026-05-08 19:27 | 51.46239 | -0.40433 | 2720 ft | 171 kts | 120° |
| 2026-05-08 19:27 | 51.45530 | -0.38775 | 3275 ft | 190 kts | 127° |
| 2026-05-08 19:27 | 51.44706 | -0.36983 | 3797 ft | 209 kts | 124° |
| 2026-05-08 19:28 | 51.43958 | -0.34849 | 4302 ft | 231 kts | 114° |
| 2026-05-08 19:28 | 51.43370 | -0.32315 | 4883 ft | 253 kts | 107° |
| 2026-05-08 19:28 | 51.42899 | -0.29520 | 5405 ft | 267 kts | 104° |
| 2026-05-08 19:28 | 51.42488 | -0.26633 | 5524 ft | 263 kts | 102° |
| 2026-05-08 19:29 | 51.42112 | -0.23759 | 5638 ft | 265 kts | 102° |
| 2026-05-08 19:29 | 51.41738 | -0.20881 | 5983 ft | 269 kts | 102° |
| 2026-05-08 19:29 | 51.41346 | -0.17925 | 6910 ft | 271 kts | 102° |
| 2026-05-08 19:29 | 51.40943 | -0.14945 | 7832 ft | 278 kts | 103° |
| 2026-05-08 19:30 | 51.40524 | -0.11884 | 8694 ft | 285 kts | 103° |
| 2026-05-08 19:30 | 51.40093 | -0.08759 | 9633 ft | 290 kts | 103° |
| 2026-05-08 19:30 | 51.39651 | -0.05569 | 10478 ft | 298 kts | 103° |
| 2026-05-08 19:30 | 51.39184 | -0.02211 | 10865 ft | 321 kts | 103° |
| 2026-05-08 19:31 | 51.38681 | 0.01398 | 11279 ft | 342 kts | 103° |
| 2026-05-08 19:31 | 51.38159 | 0.05148 | 12072 ft | 347 kts | 103° |
| 2026-05-08 19:31 | 51.37633 | 0.08923 | 12950 ft | 350 kts | 103° |
| 2026-05-08 19:31 | 51.37097 | 0.12755 | 13808 ft | 354 kts | 104° |
| 2026-05-08 19:32 | 51.36553 | 0.16629 | 14606 ft | 357 kts | 104° |
| 2026-05-08 19:32 | 51.36005 | 0.20522 | 15360 ft | 361 kts | 104° |
| 2026-05-08 19:32 | 51.35449 | 0.24459 | 16096 ft | 364 kts | 104° |
| 2026-05-08 19:32 | 51.34895 | 0.28372 | 16826 ft | 368 kts | 104° |
| 2026-05-08 19:33 | 51.34324 | 0.32399 | 17568 ft | 372 kts | 104° |
| 2026-05-08 19:33 | 51.33748 | 0.36451 | 18304 ft | 376 kts | 104° |
| 2026-05-08 19:33 | 51.33164 | 0.40542 | 18934 ft | 379 kts | 104° |
| 2026-05-08 19:33 | 51.32571 | 0.44682 | 19503 ft | 384 kts | 104° |
| 2026-05-08 19:34 | 51.31969 | 0.48873 | 20081 ft | 389 kts | 104° |
| 2026-05-08 19:34 | 51.31358 | 0.53118 | 20669 ft | 393 kts | 104° |
| 2026-05-08 19:34 | 51.30739 | 0.57411 | 21227 ft | 398 kts | 104° |
| 2026-05-08 19:34 | 51.30051 | 0.61712 | 21789 ft | 402 kts | 107° |
| 2026-05-08 19:35 | 51.29257 | 0.66027 | 22336 ft | 407 kts | 107° |
| 2026-05-08 19:35 | 51.28455 | 0.70400 | 22878 ft | 412 kts | 107° |
| 2026-05-08 19:35 | 51.27647 | 0.74808 | 23428 ft | 416 kts | 107° |
| 2026-05-08 19:35 | 51.26827 | 0.79274 | 23929 ft | 420 kts | 107° |
| 2026-05-08 19:36 | 51.25999 | 0.83772 | 24392 ft | 424 kts | 106° |
| 2026-05-08 19:36 | 51.25163 | 0.88306 | 24839 ft | 428 kts | 106° |
| 2026-05-08 19:36 | 51.24315 | 0.92890 | 25259 ft | 432 kts | 106° |
| 2026-05-08 19:36 | 51.23459 | 0.97512 | 25691 ft | 436 kts | 106° |
| 2026-05-08 19:37 | 51.22593 | 1.02170 | 26115 ft | 440 kts | 106° |
| 2026-05-08 19:37 | 51.21717 | 1.06871 | 26538 ft | 444 kts | 106° |
| 2026-05-08 19:37 | 51.20830 | 1.11622 | 26938 ft | 448 kts | 106° |
| 2026-05-08 19:37 | 51.19935 | 1.16400 | 27347 ft | 451 kts | 106° |
| 2026-05-08 19:38 | 51.19040 | 1.21169 | 27735 ft | 455 kts | 106° |
| 2026-05-08 19:38 | 51.18128 | 1.26015 | 28115 ft | 458 kts | 106° |
| 2026-05-08 19:38 | 51.17207 | 1.30895 | 28478 ft | 462 kts | 106° |
| 2026-05-08 19:38 | 51.16404 | 1.35867 | 28838 ft | 464 kts | 99° |
| 2026-05-08 19:39 | 51.15996 | 1.40975 | 29186 ft | 466 kts | 92° |
| 2026-05-08 19:39 | 51.15764 | 1.46149 | 29519 ft | 469 kts | 92° |
| 2026-05-08 19:39 | 51.15523 | 1.51340 | 29861 ft | 472 kts | 92° |
| 2026-05-08 19:39 | 51.15273 | 1.56576 | 30194 ft | 475 kts | 92° |
| 2026-05-08 19:40 | 51.15016 | 1.61844 | 30500 ft | 478 kts | 92° |
| 2026-05-08 19:40 | 51.14755 | 1.67127 | 30822 ft | 479 kts | 92° |
| 2026-05-08 19:40 | 51.14490 | 1.72429 | 31151 ft | 481 kts | 92° |
| 2026-05-08 19:40 | 51.14222 | 1.77738 | 31531 ft | 482 kts | 92° |
| 2026-05-08 19:41 | 51.13952 | 1.83047 | 31946 ft | 481 kts | 92° |
| 2026-05-08 19:41 | 51.13679 | 1.88352 | 32366 ft | 480 kts | 92° |
| 2026-05-08 19:41 | 51.13405 | 1.93649 | 32778 ft | 479 kts | 92° |
| 2026-05-08 19:41 | 51.13129 | 1.98926 | 33182 ft | 478 kts | 92° |
| 2026-05-08 19:42 | 51.12851 | 2.04202 | 33574 ft | 477 kts | 92° |
| 2026-05-08 19:42 | 51.12572 | 2.09463 | 33957 ft | 477 kts | 92° |
| 2026-05-08 19:42 | 51.12293 | 2.14658 | 34294 ft | 476 kts | 92° |
| 2026-05-08 19:42 | 51.12007 | 2.19962 | 34628 ft | 475 kts | 92° |
| 2026-05-08 19:43 | 51.11726 | 2.25126 | 34951 ft | 473 kts | 92° |
| 2026-05-08 19:43 | 51.11440 | 2.30336 | 35258 ft | 473 kts | 92° |
| 2026-05-08 19:43 | 51.11153 | 2.35540 | 35558 ft | 472 kts | 92° |
| 2026-05-08 19:43 | 51.10863 | 2.40735 | 35848 ft | 471 kts | 92° |
| 2026-05-08 19:44 | 51.10571 | 2.45931 | 36128 ft | 470 kts | 93° |
| 2026-05-08 19:44 | 51.10278 | 2.51103 | 36399 ft | 469 kts | 93° |
| 2026-05-08 19:44 | 51.09983 | 2.56272 | 36660 ft | 469 kts | 93° |
| 2026-05-08 19:44 | 51.09544 | 2.61425 | 36906 ft | 470 kts | 100° |
| 2026-05-08 19:45 | 51.08703 | 2.66429 | 37133 ft | 471 kts | 108° |
| 2026-05-08 19:45 | 51.07458 | 2.71259 | 37375 ft | 471 kts | 116° |
| 2026-05-08 19:45 | 51.05931 | 2.75866 | 37603 ft | 470 kts | 117° |
| 2026-05-08 19:45 | 51.04401 | 2.80458 | 37833 ft | 470 kts | 117° |
| 2026-05-08 19:46 | 51.02896 | 2.84992 | 38061 ft | 469 kts | 117° |
| 2026-05-08 19:46 | 51.01376 | 2.89569 | 38282 ft | 468 kts | 117° |
| 2026-05-08 19:46 | 50.98334 | 2.98699 | 38703 ft | 467 kts | 118° |
| 2026-05-08 19:47 | 50.96814 | 3.03246 | 38854 ft | 467 kts | 118° |
| 2026-05-08 19:47 | 50.95289 | 3.07795 | 38989 ft | 467 kts | 118° |
| 2026-05-08 19:47 | 50.92233 | 3.16890 | 39095 ft | 467 kts | 118° |
| 2026-05-08 19:48 | 50.89169 | 3.25973 | 39097 ft | 467 kts | 118° |
| 2026-05-08 19:48 | 50.86293 | 3.34466 | 39093 ft | 468 kts | 118° |
| 2026-05-08 19:49 | 50.83214 | 3.43529 | 39098 ft | 468 kts | 118° |
| 2026-05-08 19:49 | 50.80121 | 3.52601 | 39090 ft | 468 kts | 118° |
| 2026-05-08 19:50 | 50.77042 | 3.61600 | 39087 ft | 469 kts | 118° |
| 2026-05-08 19:50 | 50.73932 | 3.70657 | 39097 ft | 469 kts | 119° |
| 2026-05-08 19:51 | 50.70813 | 3.79709 | 39093 ft | 469 kts | 119° |
| 2026-05-08 19:51 | 50.67683 | 3.88756 | 39092 ft | 470 kts | 119° |
| 2026-05-08 19:52 | 50.64547 | 3.97794 | 39099 ft | 470 kts | 119° |
| 2026-05-08 19:52 | 50.61407 | 4.06815 | 39096 ft | 470 kts | 118° |
| 2026-05-08 19:53 | 50.58576 | 4.16116 | 39093 ft | 471 kts | 114° |
| 2026-05-08 19:53 | 50.55855 | 4.25484 | 39096 ft | 471 kts | 115° |
| 2026-05-08 19:54 | 50.53075 | 4.34813 | 39101 ft | 471 kts | 115° |
| 2026-05-08 19:54 | 50.50278 | 4.44081 | 39104 ft | 471 kts | 115° |
| 2026-05-08 19:55 | 50.47451 | 4.53403 | 39101 ft | 471 kts | 115° |
| 2026-05-08 19:55 | 50.45100 | 4.61135 | 39106 ft | 471 kts | 115° |
| 2026-05-08 19:56 | 50.41809 | 4.71913 | 39104 ft | 471 kts | 116° |
| 2026-05-08 19:56 | 50.39429 | 4.79681 | 39106 ft | 471 kts | 116° |
| 2026-05-08 19:57 | 50.36583 | 4.88934 | 39106 ft | 471 kts | 116° |
| 2026-05-08 19:57 | 50.33755 | 4.98095 | 39105 ft | 471 kts | 116° |
| 2026-05-08 19:58 | 50.30903 | 5.07301 | 39119 ft | 470 kts | 116° |
| 2026-05-08 19:58 | 50.28038 | 5.16512 | 39115 ft | 470 kts | 116° |
| 2026-05-08 19:59 | 50.25172 | 5.25692 | 39109 ft | 469 kts | 116° |
| 2026-05-08 19:59 | 50.22305 | 5.34844 | 39107 ft | 469 kts | 116° |
| 2026-05-08 20:00 | 50.19434 | 5.43972 | 39107 ft | 468 kts | 116° |
| 2026-05-08 20:00 | 50.16557 | 5.53087 | 39103 ft | 468 kts | 116° |
| 2026-05-08 20:01 | 50.13667 | 5.62208 | 39102 ft | 468 kts | 116° |
| 2026-05-08 20:01 | 50.10778 | 5.71294 | 39103 ft | 468 kts | 117° |
| 2026-05-08 20:02 | 50.07869 | 5.80361 | 39111 ft | 467 kts | 118° |
| 2026-05-08 20:02 | 50.04651 | 5.89084 | 39109 ft | 467 kts | 121° |
| 2026-05-08 20:03 | 50.01403 | 5.97827 | 39105 ft | 467 kts | 121° |
| 2026-05-08 20:03 | 49.98143 | 6.06580 | 39106 ft | 467 kts | 121° |
| 2026-05-08 20:04 | 49.94873 | 6.15315 | 39108 ft | 468 kts | 121° |
| 2026-05-08 20:04 | 49.91624 | 6.23960 | 39103 ft | 468 kts | 121° |
| 2026-05-08 20:05 | 49.88336 | 6.32678 | 39095 ft | 468 kts | 121° |
| 2026-05-08 20:05 | 49.85041 | 6.41387 | 39092 ft | 468 kts | 121° |
| 2026-05-08 20:06 | 49.81740 | 6.50083 | 39105 ft | 468 kts | 121° |
| 2026-05-08 20:06 | 49.78450 | 6.58721 | 39106 ft | 469 kts | 121° |
| 2026-05-08 20:07 | 49.75135 | 6.67397 | 39106 ft | 469 kts | 121° |
| 2026-05-08 20:07 | 49.71821 | 6.76039 | 39107 ft | 469 kts | 121° |
| 2026-05-08 20:08 | 49.68478 | 6.84728 | 39110 ft | 469 kts | 122° |
| 2026-05-08 20:08 | 49.65160 | 6.93326 | 39111 ft | 468 kts | 122° |
| 2026-05-08 20:09 | 49.61810 | 7.01977 | 39110 ft | 468 kts | 122° |
| 2026-05-08 20:09 | 49.58464 | 7.10590 | 39107 ft | 468 kts | 122° |
| 2026-05-08 20:10 | 49.55110 | 7.19194 | 39100 ft | 468 kts | 122° |
| 2026-05-08 20:10 | 49.51745 | 7.27800 | 39094 ft | 468 kts | 122° |
| 2026-05-08 20:11 | 49.48379 | 7.36377 | 39091 ft | 468 kts | 122° |
| 2026-05-08 20:11 | 49.45028 | 7.44892 | 39090 ft | 468 kts | 122° |
| 2026-05-08 20:12 | 49.41648 | 7.53451 | 39086 ft | 468 kts | 122° |
| 2026-05-08 20:12 | 49.38256 | 7.62012 | 39086 ft | 468 kts | 122° |
| 2026-05-08 20:13 | 49.34863 | 7.70549 | 39088 ft | 468 kts | 122° |
| 2026-05-08 20:13 | 49.31462 | 7.79078 | 39088 ft | 468 kts | 123° |
| 2026-05-08 20:14 | 49.28059 | 7.87583 | 39084 ft | 468 kts | 123° |
| 2026-05-08 20:14 | 49.24653 | 7.96072 | 39082 ft | 469 kts | 123° |
| 2026-05-08 20:15 | 49.21231 | 8.04570 | 39077 ft | 469 kts | 123° |
| 2026-05-08 20:15 | 49.17803 | 8.13058 | 39078 ft | 469 kts | 123° |
| 2026-05-08 20:16 | 49.14373 | 8.21522 | 39077 ft | 468 kts | 123° |
| 2026-05-08 20:16 | 49.10940 | 8.29970 | 39071 ft | 468 kts | 123° |
| 2026-05-08 20:17 | 49.07499 | 8.38407 | 39072 ft | 468 kts | 123° |
| 2026-05-08 20:17 | 49.04070 | 8.46790 | 39073 ft | 468 kts | 123° |
| 2026-05-08 20:18 | 49.00423 | 8.54985 | 39071 ft | 467 kts | 130° |
| 2026-05-08 20:18 | 48.96024 | 8.62220 | 39072 ft | 464 kts | 140° |
| 2026-05-08 20:19 | 48.91035 | 8.68407 | 39070 ft | 463 kts | 144° |
| 2026-05-08 20:19 | 48.85981 | 8.74491 | 39066 ft | 463 kts | 143° |
| 2026-05-08 20:20 | 48.80922 | 8.80578 | 39074 ft | 463 kts | 144° |
| 2026-05-08 20:20 | 48.75866 | 8.86641 | 39072 ft | 464 kts | 144° |
| 2026-05-08 20:21 | 48.70804 | 8.92694 | 39074 ft | 464 kts | 144° |
| 2026-05-08 20:21 | 48.65769 | 8.98698 | 39076 ft | 464 kts | 144° |
| 2026-05-08 20:22 | 48.60687 | 9.04742 | 39077 ft | 464 kts | 144° |
| 2026-05-08 20:22 | 48.56470 | 9.09746 | 39078 ft | 464 kts | 144° |
| 2026-05-08 20:23 | 48.50529 | 9.16777 | 39080 ft | 464 kts | 144° |
| 2026-05-08 20:23 | 48.45448 | 9.22773 | 39074 ft | 464 kts | 144° |
| 2026-05-08 20:24 | 48.40357 | 9.28764 | 39072 ft | 464 kts | 144° |
| 2026-05-08 20:24 | 48.35303 | 9.34698 | 39073 ft | 464 kts | 144° |
| 2026-05-08 20:25 | 48.30214 | 9.40656 | 39070 ft | 464 kts | 144° |
| 2026-05-08 20:25 | 48.25120 | 9.46606 | 39073 ft | 464 kts | 144° |
| 2026-05-08 20:26 | 48.20117 | 9.52717 | 39073 ft | 464 kts | 142° |
| 2026-05-08 20:26 | 48.15144 | 9.58899 | 39075 ft | 464 kts | 143° |
| 2026-05-08 20:27 | 48.10152 | 9.65043 | 39071 ft | 464 kts | 143° |
| 2026-05-08 20:27 | 48.05450 | 9.70799 | 39070 ft | 464 kts | 143° |
| 2026-05-08 20:28 | 48.00449 | 9.76903 | 39069 ft | 464 kts | 143° |
| 2026-05-08 20:28 | 47.95478 | 9.82955 | 39069 ft | 464 kts | 143° |
| 2026-05-08 20:29 | 47.90476 | 9.89031 | 39068 ft | 464 kts | 143° |
| 2026-05-08 20:29 | 47.85457 | 9.95110 | 39068 ft | 464 kts | 143° |
| 2026-05-08 20:30 | 47.80443 | 10.01168 | 39066 ft | 464 kts | 143° |
| 2026-05-08 20:30 | 47.75423 | 10.07218 | 39063 ft | 464 kts | 143° |
| 2026-05-08 20:31 | 47.70392 | 10.13266 | 39073 ft | 465 kts | 143° |
| 2026-05-08 20:31 | 47.65371 | 10.19285 | 39069 ft | 465 kts | 143° |
| 2026-05-08 20:32 | 47.60328 | 10.25316 | 39068 ft | 465 kts | 143° |
| 2026-05-08 20:32 | 47.55267 | 10.31202 | 39070 ft | 464 kts | 148° |
| 2026-05-08 20:33 | 47.49887 | 10.36455 | 39068 ft | 464 kts | 149° |
| 2026-05-08 20:33 | 47.44493 | 10.41680 | 39072 ft | 463 kts | 149° |
| 2026-05-08 20:34 | 47.39109 | 10.46895 | 39071 ft | 462 kts | 149° |
| 2026-05-08 20:35 | 47.31054 | 10.54671 | 39077 ft | 463 kts | 149° |
| 2026-05-08 20:35 | 47.25685 | 10.59955 | 39084 ft | 463 kts | 147° |
| 2026-05-08 20:36 | 47.20467 | 10.65514 | 39080 ft | 462 kts | 147° |
| 2026-05-08 20:36 | 47.15249 | 10.71041 | 39085 ft | 462 kts | 147° |
| 2026-05-08 20:37 | 47.10047 | 10.76489 | 39090 ft | 462 kts | 147° |
| 2026-05-08 20:37 | 47.04800 | 10.81959 | 39098 ft | 462 kts | 148° |
| 2026-05-08 20:38 | 46.99557 | 10.87414 | 39110 ft | 462 kts | 148° |
| 2026-05-08 20:38 | 46.94302 | 10.92866 | 39096 ft | 463 kts | 148° |
| 2026-05-08 20:39 | 46.89041 | 10.98313 | 39104 ft | 463 kts | 148° |
| 2026-05-08 20:39 | 46.83787 | 11.03798 | 39111 ft | 466 kts | 145° |
| 2026-05-08 20:40 | 46.79018 | 11.10175 | 39109 ft | 471 kts | 135° |
| 2026-05-08 20:40 | 46.74732 | 11.17457 | 39098 ft | 472 kts | 133° |
| 2026-05-08 20:41 | 46.70459 | 11.24723 | 39078 ft | 472 kts | 134° |
| 2026-05-08 20:41 | 46.66165 | 11.31974 | 39064 ft | 473 kts | 134° |
| 2026-05-08 20:42 | 46.61857 | 11.39223 | 39066 ft | 473 kts | 134° |
| 2026-05-08 20:42 | 46.57541 | 11.46465 | 39065 ft | 474 kts | 134° |
| 2026-05-08 20:43 | 46.53953 | 11.52475 | 39054 ft | 471 kts | 134° |
| 2026-05-08 20:43 | 46.49644 | 11.59672 | 39059 ft | 472 kts | 134° |
| 2026-05-08 20:44 | 46.45324 | 11.66865 | 39058 ft | 473 kts | 134° |
| 2026-05-08 20:44 | 46.40988 | 11.74070 | 39062 ft | 473 kts | 134° |
| 2026-05-08 20:45 | 46.36660 | 11.81244 | 39065 ft | 472 kts | 134° |
| 2026-05-08 20:45 | 46.32344 | 11.88378 | 39056 ft | 471 kts | 134° |
| 2026-05-08 20:46 | 46.28059 | 11.95441 | 39057 ft | 470 kts | 134° |
| 2026-05-08 20:46 | 46.23740 | 12.02543 | 39047 ft | 469 kts | 134° |
| 2026-05-08 20:47 | 46.19434 | 12.09605 | 39041 ft | 469 kts | 134° |
| 2026-05-08 20:47 | 46.15121 | 12.16661 | 39026 ft | 468 kts | 135° |
| 2026-05-08 20:48 | 46.10814 | 12.23686 | 39050 ft | 471 kts | 135° |
| 2026-05-08 20:48 | 46.06438 | 12.30806 | 39050 ft | 472 kts | 135° |
| 2026-05-08 20:49 | 46.02084 | 12.37876 | 39057 ft | 473 kts | 135° |
| 2026-05-08 20:49 | 45.97704 | 12.44966 | 39059 ft | 473 kts | 135° |
| 2026-05-08 20:50 | 45.93331 | 12.52028 | 39062 ft | 474 kts | 135° |
| 2026-05-08 20:50 | 45.88971 | 12.59049 | 39064 ft | 474 kts | 135° |
| 2026-05-08 20:51 | 45.84570 | 12.66121 | 39067 ft | 475 kts | 135° |
| 2026-05-08 20:51 | 45.80164 | 12.73180 | 39081 ft | 475 kts | 135° |
| 2026-05-08 20:52 | 45.75751 | 12.80234 | 39062 ft | 474 kts | 135° |
| 2026-05-08 20:52 | 45.71346 | 12.87258 | 39053 ft | 474 kts | 135° |
| 2026-05-08 20:53 | 45.66955 | 12.94304 | 39042 ft | 475 kts | 133° |
| 2026-05-08 20:53 | 45.62870 | 13.01742 | 39038 ft | 476 kts | 130° |
| 2026-05-08 20:54 | 45.58850 | 13.09180 | 39042 ft | 476 kts | 131° |
| 2026-05-08 20:54 | 45.54762 | 13.16604 | 39050 ft | 475 kts | 131° |
| 2026-05-08 20:55 | 45.50653 | 13.24002 | 39062 ft | 475 kts | 131° |
| 2026-05-08 20:55 | 45.46541 | 13.31379 | 39071 ft | 475 kts | 131° |
| 2026-05-08 20:56 | 45.42420 | 13.38757 | 39082 ft | 476 kts | 131° |
| 2026-05-08 20:56 | 45.38294 | 13.46124 | 39086 ft | 476 kts | 132° |
| 2026-05-08 20:57 | 45.34192 | 13.53429 | 39087 ft | 476 kts | 132° |
| 2026-05-08 20:57 | 45.30046 | 13.60794 | 39084 ft | 476 kts | 132° |
| 2026-05-08 20:58 | 45.25903 | 13.68133 | 39080 ft | 477 kts | 132° |
| 2026-05-08 20:58 | 45.21748 | 13.75477 | 39075 ft | 477 kts | 132° |
| 2026-05-08 20:59 | 45.17579 | 13.82824 | 39076 ft | 477 kts | 132° |
| 2026-05-08 20:59 | 45.13411 | 13.90151 | 39080 ft | 478 kts | 132° |
| 2026-05-08 21:00 | 45.09236 | 13.97472 | 39083 ft | 478 kts | 132° |
| 2026-05-08 21:00 | 45.05062 | 14.04773 | 39080 ft | 477 kts | 132° |
| 2026-05-08 21:01 | 45.00901 | 14.12031 | 39083 ft | 477 kts | 132° |
| 2026-05-08 21:01 | 44.96714 | 14.19317 | 39080 ft | 477 kts | 132° |
| 2026-05-08 21:02 | 44.92527 | 14.26583 | 39070 ft | 476 kts | 132° |
| 2026-05-08 21:02 | 44.88344 | 14.33825 | 39073 ft | 475 kts | 132° |
| 2026-05-08 21:03 | 44.84155 | 14.41057 | 39069 ft | 476 kts | 132° |
| 2026-05-08 21:03 | 44.80000 | 14.48213 | 39064 ft | 475 kts | 133° |
| 2026-05-08 21:04 | 44.75810 | 14.55412 | 39066 ft | 475 kts | 133° |
| 2026-05-08 21:04 | 44.71621 | 14.62590 | 39069 ft | 474 kts | 133° |
| 2026-05-08 21:05 | 44.67403 | 14.69800 | 39071 ft | 474 kts | 133° |
| 2026-05-08 21:05 | 44.63213 | 14.76943 | 39070 ft | 474 kts | 133° |
| 2026-05-08 21:06 | 44.59046 | 14.84031 | 39070 ft | 474 kts | 133° |
| 2026-05-08 21:06 | 44.54846 | 14.91157 | 39069 ft | 474 kts | 133° |
| 2026-05-08 21:07 | 44.50638 | 14.98278 | 39067 ft | 474 kts | 133° |
| 2026-05-08 21:07 | 44.46425 | 15.05389 | 39064 ft | 474 kts | 133° |
| 2026-05-08 21:08 | 44.42203 | 15.12498 | 39066 ft | 475 kts | 133° |
| 2026-05-08 21:08 | 44.37972 | 15.19605 | 39065 ft | 475 kts | 133° |
| 2026-05-08 21:09 | 44.33738 | 15.26699 | 39064 ft | 475 kts | 133° |
| 2026-05-08 21:09 | 44.29496 | 15.33788 | 39067 ft | 476 kts | 134° |
| 2026-05-08 21:10 | 44.25270 | 15.40834 | 39068 ft | 476 kts | 134° |
| 2026-05-08 21:10 | 44.21008 | 15.47924 | 39072 ft | 477 kts | 134° |
| 2026-05-08 21:11 | 44.16737 | 15.55010 | 39072 ft | 478 kts | 134° |
| 2026-05-08 21:11 | 44.12454 | 15.62097 | 39077 ft | 478 kts | 134° |
| 2026-05-08 21:12 | 44.08158 | 15.69190 | 39075 ft | 479 kts | 134° |
| 2026-05-08 21:12 | 44.03852 | 15.76280 | 39056 ft | 479 kts | 134° |
| 2026-05-08 21:13 | 43.99557 | 15.83338 | 39067 ft | 477 kts | 134° |
| 2026-05-08 21:13 | 43.95261 | 15.90377 | 39066 ft | 478 kts | 134° |
| 2026-05-08 21:14 | 43.90957 | 15.97415 | 39056 ft | 478 kts | 134° |
| 2026-05-08 21:14 | 43.86660 | 16.04368 | 39054 ft | 477 kts | 136° |
| 2026-05-08 21:15 | 43.82067 | 16.10963 | 39057 ft | 476 kts | 138° |
| 2026-05-08 21:15 | 43.77457 | 16.17579 | 39056 ft | 477 kts | 138° |
| 2026-05-08 21:16 | 43.72848 | 16.24173 | 39052 ft | 477 kts | 138° |
| 2026-05-08 21:16 | 43.68215 | 16.30778 | 39053 ft | 477 kts | 138° |
| 2026-05-08 21:17 | 43.63584 | 16.37361 | 39054 ft | 478 kts | 138° |
| 2026-05-08 21:17 | 43.58974 | 16.43899 | 39052 ft | 478 kts | 138° |
| 2026-05-08 21:18 | 43.54303 | 16.50508 | 39048 ft | 478 kts | 139° |
| 2026-05-08 21:18 | 43.49688 | 16.57023 | 39048 ft | 478 kts | 139° |
| 2026-05-08 21:19 | 43.45037 | 16.63573 | 39041 ft | 478 kts | 139° |
| 2026-05-08 21:19 | 43.40378 | 16.70119 | 39040 ft | 479 kts | 139° |
| 2026-05-08 21:20 | 43.35710 | 16.76662 | 39037 ft | 478 kts | 139° |
| 2026-05-08 21:20 | 43.31046 | 16.83183 | 39042 ft | 478 kts | 139° |
| 2026-05-08 21:21 | 43.26376 | 16.89698 | 39032 ft | 478 kts | 139° |
| 2026-05-08 21:21 | 43.21729 | 16.96168 | 39032 ft | 478 kts | 139° |
| 2026-05-08 21:22 | 43.17054 | 17.02660 | 39031 ft | 478 kts | 139° |
| 2026-05-08 21:22 | 43.12622 | 17.09484 | 39027 ft | 483 kts | 130° |
| 2026-05-08 21:23 | 43.08832 | 17.17112 | 39024 ft | 484 kts | 127° |
| 2026-05-08 21:23 | 43.05068 | 17.24747 | 39025 ft | 484 kts | 127° |
| 2026-05-08 21:24 | 43.01289 | 17.32368 | 39022 ft | 485 kts | 127° |
| 2026-05-08 21:24 | 42.97604 | 17.40090 | 39025 ft | 485 kts | 126° |
| 2026-05-08 21:25 | 42.93950 | 17.47840 | 39031 ft | 486 kts | 126° |
| 2026-05-08 21:25 | 42.90272 | 17.55572 | 39035 ft | 486 kts | 126° |
| 2026-05-08 21:26 | 42.86572 | 17.63312 | 39038 ft | 487 kts | 126° |
| 2026-05-08 21:26 | 42.82870 | 17.71034 | 39042 ft | 487 kts | 126° |
| 2026-05-08 21:27 | 42.79160 | 17.78752 | 39045 ft | 488 kts | 126° |
| 2026-05-08 21:27 | 42.75464 | 17.86423 | 39046 ft | 488 kts | 126° |
| 2026-05-08 21:28 | 42.71735 | 17.94141 | 39043 ft | 488 kts | 126° |
| 2026-05-08 21:28 | 42.68005 | 18.01841 | 39030 ft | 487 kts | 126° |
| 2026-05-08 21:28 | 42.66141 | 18.05683 | 38903 ft | 487 kts | 126° |
| 2026-05-08 21:29 | 42.64279 | 18.09516 | 38434 ft | 487 kts | 127° |
| 2026-05-08 21:29 | 42.62399 | 18.13377 | 37604 ft | 491 kts | 126° |
| 2026-05-08 21:29 | 42.60508 | 18.17256 | 36638 ft | 496 kts | 126° |
| 2026-05-08 21:29 | 42.58586 | 18.21191 | 35637 ft | 503 kts | 126° |
| 2026-05-08 21:30 | 42.56656 | 18.25143 | 34994 ft | 501 kts | 126° |
| 2026-05-08 21:30 | 42.55378 | 18.27759 | 34529 ft | 501 kts | 126° |
| 2026-05-08 21:30 | 42.52771 | 18.32964 | 33177 ft | 508 kts | 127° |
| 2026-05-08 21:30 | 42.50743 | 18.36903 | 32393 ft | 506 kts | 127° |
| 2026-05-08 21:31 | 42.49410 | 18.39485 | 31964 ft | 504 kts | 127° |
| 2026-05-08 21:31 | 42.47393 | 18.43396 | 30999 ft | 507 kts | 127° |
| 2026-05-08 21:31 | 42.45368 | 18.47326 | 29970 ft | 512 kts | 127° |
| 2026-05-08 21:31 | 42.43316 | 18.51265 | 29094 ft | 510 kts | 128° |
| 2026-05-08 21:32 | 42.41158 | 18.55017 | 28523 ft | 498 kts | 134° |
| 2026-05-08 21:32 | 42.38750 | 18.58275 | 28201 ft | 482 kts | 141° |
| 2026-05-08 21:32 | 42.36254 | 18.61260 | 27476 ft | 478 kts | 141° |
| 2026-05-08 21:32 | 42.33779 | 18.64227 | 26869 ft | 472 kts | 141° |
| 2026-05-08 21:33 | 42.31338 | 18.67165 | 26290 ft | 466 kts | 141° |
| 2026-05-08 21:33 | 42.28923 | 18.70074 | 25597 ft | 463 kts | 141° |
| 2026-05-08 21:33 | 42.26543 | 18.72942 | 25049 ft | 456 kts | 141° |
| 2026-05-08 21:33 | 42.24174 | 18.75795 | 24356 ft | 454 kts | 141° |
| 2026-05-08 21:34 | 42.21832 | 18.78612 | 23733 ft | 450 kts | 140° |
| 2026-05-08 21:34 | 42.19518 | 18.81394 | 23162 ft | 442 kts | 140° |
| 2026-05-08 21:34 | 42.17230 | 18.84141 | 22421 ft | 439 kts | 140° |
| 2026-05-08 21:34 | 42.14965 | 18.86859 | 21871 ft | 432 kts | 140° |
| 2026-05-08 21:35 | 42.12740 | 18.89526 | 21305 ft | 425 kts | 141° |
| 2026-05-08 21:35 | 42.10531 | 18.92170 | 20573 ft | 424 kts | 141° |
| 2026-05-08 21:35 | 42.08342 | 18.94788 | 20107 ft | 416 kts | 141° |
| 2026-05-08 21:35 | 42.06182 | 18.97368 | 19350 ft | 417 kts | 141° |
| 2026-05-08 21:36 | 42.04059 | 18.99902 | 18883 ft | 410 kts | 141° |
| 2026-05-08 21:36 | 42.01919 | 19.02454 | 18131 ft | 411 kts | 141° |
| 2026-05-08 21:36 | 41.99793 | 19.04986 | 17581 ft | 404 kts | 141° |
| 2026-05-08 21:36 | 41.97708 | 19.07468 | 17035 ft | 398 kts | 141° |
| 2026-05-08 21:37 | 41.95637 | 19.09929 | 16350 ft | 396 kts | 141° |
| 2026-05-08 21:37 | 41.93595 | 19.12356 | 15840 ft | 389 kts | 140° |
| 2026-05-08 21:37 | 41.91569 | 19.14760 | 15166 ft | 387 kts | 140° |
| 2026-05-08 21:37 | 41.89569 | 19.17133 | 14665 ft | 381 kts | 140° |
| 2026-05-08 21:38 | 41.87583 | 19.19486 | 14023 ft | 379 kts | 140° |
| 2026-05-08 21:38 | 41.85620 | 19.21810 | 13487 ft | 373 kts | 140° |
| 2026-05-08 21:38 | 41.83685 | 19.24099 | 12823 ft | 370 kts | 140° |
| 2026-05-08 21:38 | 41.81759 | 19.26376 | 12330 ft | 364 kts | 140° |
| 2026-05-08 21:39 | 41.79900 | 19.28573 | 12175 ft | 348 kts | 140° |
| 2026-05-08 21:39 | 41.78127 | 19.30671 | 12077 ft | 332 kts | 140° |
| 2026-05-08 21:39 | 41.76575 | 19.32867 | 11969 ft | 318 kts | 131° |
| 2026-05-08 21:39 | 41.75191 | 19.35102 | 11866 ft | 304 kts | 131° |
| 2026-05-08 21:40 | 41.73860 | 19.37241 | 11765 ft | 298 kts | 131° |
| 2026-05-08 21:40 | 41.72535 | 19.39358 | 11666 ft | 302 kts | 131° |
| 2026-05-08 21:40 | 41.71190 | 19.41501 | 11563 ft | 300 kts | 131° |
| 2026-05-08 21:41 | 41.68515 | 19.45765 | 11364 ft | 299 kts | 131° |
| 2026-05-08 21:41 | 41.67179 | 19.47892 | 11269 ft | 298 kts | 132° |
| 2026-05-08 21:41 | 41.65845 | 19.50015 | 11173 ft | 298 kts | 132° |
| 2026-05-08 21:41 | 41.64566 | 19.52190 | 11077 ft | 299 kts | 122° |
| 2026-05-08 21:42 | 41.63894 | 19.54815 | 10974 ft | 302 kts | 97° |
| 2026-05-08 21:42 | 41.63981 | 19.57628 | 10886 ft | 304 kts | 85° |
| 2026-05-08 21:42 | 41.64204 | 19.60433 | 10791 ft | 303 kts | 85° |
| 2026-05-08 21:42 | 41.64428 | 19.63227 | 10684 ft | 302 kts | 85° |
| 2026-05-08 21:43 | 41.64361 | 19.66002 | 10589 ft | 299 kts | 106° |
| 2026-05-08 21:43 | 41.63463 | 19.68468 | 10497 ft | 295 kts | 131° |
| 2026-05-08 21:43 | 41.61892 | 19.70158 | 10408 ft | 290 kts | 157° |
| 2026-05-08 21:43 | 41.59985 | 19.70775 | 10315 ft | 286 kts | 179° |
| 2026-05-08 21:44 | 41.58003 | 19.70692 | 10219 ft | 285 kts | 185° |
| 2026-05-08 21:44 | 41.56025 | 19.70546 | 10126 ft | 284 kts | 184° |
| 2026-05-08 21:44 | 41.54048 | 19.70516 | 10031 ft | 284 kts | 180° |
| 2026-05-08 21:44 | 41.52073 | 19.70629 | 9931 ft | 284 kts | 178° |
| 2026-05-08 21:45 | 41.50104 | 19.70841 | 9831 ft | 284 kts | 176° |
| 2026-05-08 21:45 | 41.48139 | 19.71102 | 9725 ft | 284 kts | 176° |
| 2026-05-08 21:45 | 41.46171 | 19.71382 | 9621 ft | 283 kts | 175° |
| 2026-05-08 21:45 | 41.44211 | 19.71666 | 9516 ft | 283 kts | 175° |
| 2026-05-08 21:46 | 41.42255 | 19.71946 | 9405 ft | 282 kts | 176° |
| 2026-05-08 21:46 | 41.40304 | 19.71967 | 9291 ft | 280 kts | 184° |
| 2026-05-08 21:46 | 41.38354 | 19.71904 | 9202 ft | 280 kts | 181° |
| 2026-05-08 21:46 | 41.36410 | 19.72031 | 9100 ft | 280 kts | 176° |
| 2026-05-08 21:47 | 41.34472 | 19.72347 | 9001 ft | 280 kts | 173° |
| 2026-05-08 21:47 | 41.32554 | 19.72776 | 8884 ft | 280 kts | 172° |
| 2026-05-08 21:47 | 41.30638 | 19.73261 | 8791 ft | 280 kts | 171° |
| 2026-05-08 21:47 | 41.28742 | 19.73759 | 8683 ft | 277 kts | 171° |
| 2026-05-08 21:48 | 41.26856 | 19.74098 | 8564 ft | 276 kts | 186° |
| 2026-05-08 21:48 | 41.25091 | 19.73240 | 8477 ft | 272 kts | 219° |
| 2026-05-08 21:48 | 41.23792 | 19.71422 | 8388 ft | 272 kts | 232° |
| 2026-05-08 21:48 | 41.22682 | 19.69390 | 8286 ft | 271 kts | 235° |
| 2026-05-08 21:49 | 41.21619 | 19.67326 | 8183 ft | 270 kts | 236° |
| 2026-05-08 21:49 | 41.20572 | 19.65264 | 8082 ft | 269 kts | 236° |
| 2026-05-08 21:49 | 41.19528 | 19.63202 | 7983 ft | 269 kts | 236° |
| 2026-05-08 21:49 | 41.18363 | 19.61277 | 7873 ft | 263 kts | 224° |
| 2026-05-08 21:50 | 41.16886 | 19.59956 | 7771 ft | 252 kts | 204° |
| 2026-05-08 21:50 | 41.15378 | 19.58910 | 7663 ft | 239 kts | 222° |
| 2026-05-08 21:50 | 41.14486 | 19.57147 | 7553 ft | 228 kts | 252° |
| 2026-05-08 21:50 | 41.14455 | 19.55110 | 7454 ft | 221 kts | 285° |
| 2026-05-08 21:51 | 41.15242 | 19.53328 | 7362 ft | 231 kts | 311° |
| 2026-05-08 21:51 | 41.16532 | 19.52100 | 7262 ft | 235 kts | 334° |
| 2026-05-08 21:51 | 41.18136 | 19.51680 | 7165 ft | 239 kts | 2° |
| 2026-05-08 21:51 | 41.19761 | 19.52168 | 7077 ft | 242 kts | 15° |
| 2026-05-08 21:52 | 41.21371 | 19.52798 | 6982 ft | 241 kts | 15° |
| 2026-05-08 21:52 | 41.22981 | 19.53420 | 6888 ft | 240 kts | 15° |
| 2026-05-08 21:52 | 41.24590 | 19.54035 | 6789 ft | 240 kts | 15° |
| 2026-05-08 21:52 | 41.26060 | 19.55054 | 6691 ft | 240 kts | 45° |
| 2026-05-08 21:53 | 41.26929 | 19.56909 | 6602 ft | 238 kts | 78° |
| 2026-05-08 21:53 | 41.26953 | 19.59058 | 6501 ft | 232 kts | 110° |
| 2026-05-08 21:53 | 41.26187 | 19.60875 | 6408 ft | 224 kts | 139° |
| 2026-05-08 21:53 | 41.24892 | 19.61946 | 6310 ft | 219 kts | 167° |
| 2026-05-08 21:54 | 41.23400 | 19.62077 | 6209 ft | 214 kts | 193° |
| 2026-05-08 21:54 | 41.21985 | 19.61541 | 6107 ft | 211 kts | 198° |
| 2026-05-08 21:54 | 41.20573 | 19.60987 | 6004 ft | 212 kts | 198° |
| 2026-05-08 21:54 | 41.19175 | 19.60451 | 5904 ft | 211 kts | 197° |
| 2026-05-08 21:55 | 41.17765 | 19.59917 | 5800 ft | 211 kts | 197° |
| 2026-05-08 21:55 | 41.16412 | 19.59204 | 5692 ft | 209 kts | 215° |
| 2026-05-08 21:55 | 41.15430 | 19.57800 | 5595 ft | 211 kts | 241° |
| 2026-05-08 21:56 | 41.15449 | 19.53994 | 5400 ft | 222 kts | 297° |
| 2026-05-08 21:56 | 41.16544 | 19.52526 | 5304 ft | 230 kts | 328° |
| 2026-05-08 21:56 | 41.18092 | 19.51992 | 5205 ft | 236 kts | 1° |
| 2026-05-08 21:56 | 41.19696 | 19.52463 | 5114 ft | 237 kts | 16° |
| 2026-05-08 21:57 | 41.21274 | 19.53091 | 5013 ft | 236 kts | 16° |
| 2026-05-08 21:57 | 41.22847 | 19.53710 | 4916 ft | 236 kts | 16° |
| 2026-05-08 21:57 | 41.24427 | 19.54324 | 4821 ft | 236 kts | 18° |
| 2026-05-08 21:57 | 41.25812 | 19.55427 | 4715 ft | 234 kts | 50° |
| 2026-05-08 21:58 | 41.26551 | 19.57303 | 4611 ft | 230 kts | 83° |
| 2026-05-08 21:58 | 41.26452 | 19.59361 | 4523 ft | 220 kts | 115° |
| 2026-05-08 21:58 | 41.25630 | 19.61012 | 4411 ft | 212 kts | 144° |
| 2026-05-08 21:58 | 41.24356 | 19.61907 | 4326 ft | 207 kts | 170° |
| 2026-05-08 21:59 | 41.22941 | 19.61915 | 4213 ft | 204 kts | 196° |
| 2026-05-08 21:59 | 41.21586 | 19.61379 | 4116 ft | 203 kts | 198° |
| 2026-05-08 21:59 | 41.20234 | 19.60851 | 4014 ft | 203 kts | 197° |
| 2026-05-08 21:59 | 41.18896 | 19.60340 | 3914 ft | 202 kts | 197° |
| 2026-05-08 22:00 | 41.17551 | 19.59832 | 3813 ft | 200 kts | 197° |
| 2026-05-08 22:00 | 41.16294 | 19.59072 | 3709 ft | 200 kts | 218° |
| 2026-05-08 22:00 | 41.15424 | 19.57636 | 3598 ft | 203 kts | 244° |
| 2026-05-08 22:00 | 41.15185 | 19.55781 | 3508 ft | 209 kts | 272° |
| 2026-05-08 22:01 | 41.15692 | 19.53954 | 3414 ft | 218 kts | 303° |
| 2026-05-08 22:01 | 41.16883 | 19.52678 | 3318 ft | 227 kts | 335° |
| 2026-05-08 22:01 | 41.18446 | 19.52422 | 3221 ft | 232 kts | 10° |
| 2026-05-08 22:01 | 41.20003 | 19.52995 | 3126 ft | 232 kts | 17° |
| 2026-05-08 22:02 | 41.21543 | 19.53609 | 3046 ft | 230 kts | 17° |
| 2026-05-08 22:02 | 41.23084 | 19.54214 | 3042 ft | 231 kts | 16° |
| 2026-05-08 22:02 | 41.24595 | 19.54863 | 3037 ft | 230 kts | 28° |
| 2026-05-08 22:02 | 41.25758 | 19.56266 | 3043 ft | 227 kts | 63° |
| 2026-05-08 22:03 | 41.26161 | 19.58242 | 3046 ft | 222 kts | 97° |
| 2026-05-08 22:03 | 41.25739 | 19.60143 | 3047 ft | 212 kts | 127° |
| 2026-05-08 22:03 | 41.24703 | 19.61450 | 3053 ft | 205 kts | 155° |
| 2026-05-08 22:03 | 41.23353 | 19.61919 | 3045 ft | 200 kts | 183° |
| 2026-05-08 22:04 | 41.21994 | 19.61543 | 3052 ft | 201 kts | 198° |
| 2026-05-08 22:04 | 41.20664 | 19.61010 | 3043 ft | 199 kts | 198° |
| 2026-05-08 22:04 | 41.19360 | 19.60036 | 3049 ft | 239 kts | 225° |
| 2026-05-08 22:04 | 41.18523 | 19.58087 | 3042 ft | 250 kts | 254° |
| 2026-05-08 22:05 | 41.18548 | 19.55761 | 3039 ft | 259 kts | 283° |
| 2026-05-08 22:05 | 41.19464 | 19.53682 | 3040 ft | 267 kts | 313° |
| 2026-05-08 22:05 | 41.21061 | 19.52403 | 3041 ft | 274 kts | 342° |
| 2026-05-08 22:05 | 41.22960 | 19.52261 | 3045 ft | 278 kts | 11° |
| 2026-05-08 22:06 | 41.24839 | 19.52871 | 3038 ft | 277 kts | 6° |
| 2026-05-08 22:06 | 41.26731 | 19.52932 | 3043 ft | 275 kts | 356° |
| 2026-05-08 22:06 | 41.28668 | 19.52783 | 3043 ft | 276 kts | 355° |
| 2026-05-08 22:06 | 41.30562 | 19.52660 | 3044 ft | 276 kts | 357° |
| 2026-05-08 22:07 | 41.32478 | 19.52609 | 3046 ft | 275 kts | 359° |
| 2026-05-08 22:07 | 41.34392 | 19.52616 | 3051 ft | 276 kts | 360° |
| 2026-05-08 22:07 | 41.36307 | 19.52654 | 3042 ft | 274 kts | 0° |
| 2026-05-08 22:07 | 41.38213 | 19.52706 | 3044 ft | 274 kts | 1° |
| 2026-05-08 22:08 | 41.40121 | 19.52762 | 3047 ft | 274 kts | 1° |
| 2026-05-08 22:08 | 41.42026 | 19.52818 | 3047 ft | 273 kts | 1° |
| 2026-05-08 22:08 | 41.43925 | 19.52873 | 3049 ft | 272 kts | 1° |
| 2026-05-08 22:08 | 41.45818 | 19.52928 | 3044 ft | 272 kts | 1° |
| 2026-05-08 22:09 | 41.47710 | 19.52983 | 3045 ft | 271 kts | 1° |
| 2026-05-08 22:09 | 41.49597 | 19.53036 | 3047 ft | 271 kts | 1° |
| 2026-05-08 22:09 | 41.51486 | 19.53091 | 3044 ft | 271 kts | 1° |
| 2026-05-08 22:09 | 41.53368 | 19.53144 | 3047 ft | 271 kts | 1° |
| 2026-05-08 22:10 | 41.55251 | 19.53199 | 3042 ft | 270 kts | 1° |
| 2026-05-08 22:10 | 41.57134 | 19.53254 | 3047 ft | 271 kts | 1° |
| 2026-05-08 22:10 | 41.59010 | 19.53309 | 3045 ft | 270 kts | 1° |
| 2026-05-08 22:10 | 41.60881 | 19.53393 | 3039 ft | 269 kts | 7° |
| 2026-05-08 22:11 | 41.62621 | 19.54250 | 3045 ft | 267 kts | 36° |
| 2026-05-08 22:11 | 41.63845 | 19.56069 | 3044 ft | 265 kts | 64° |
| 2026-05-08 22:11 | 41.64321 | 19.58414 | 3049 ft | 263 kts | 85° |
| 2026-05-08 22:11 | 41.64454 | 19.60791 | 3045 ft | 253 kts | 89° |
| 2026-05-08 22:12 | 41.64536 | 19.63063 | 3047 ft | 237 kts | 89° |
| 2026-05-08 22:12 | 41.64629 | 19.65204 | 3044 ft | 223 kts | 89° |
| 2026-05-08 22:12 | 41.64377 | 19.67129 | 3045 ft | 203 kts | 119° |
| 2026-05-08 22:12 | 41.63486 | 19.68446 | 3064 ft | 183 kts | 148° |
| 2026-05-08 22:13 | 41.62411 | 19.69081 | 3036 ft | 155 kts | 165° |
| 2026-05-08 22:13 | 41.61427 | 19.69351 | 3058 ft | 137 kts | 172° |
| 2026-05-08 22:13 | 41.60508 | 19.69507 | 3047 ft | 132 kts | 173° |
| 2026-05-08 22:13 | 41.59593 | 19.69635 | 3042 ft | 131 kts | 174° |
| 2026-05-08 22:14 | 41.58691 | 19.69756 | 3055 ft | 131 kts | 174° |
| 2026-05-08 22:14 | 41.57780 | 19.69879 | 3018 ft | 132 kts | 174° |
| 2026-05-08 22:14 | 41.56870 | 19.70000 | 2896 ft | 131 kts | 174° |
| 2026-05-08 22:14 | 41.55969 | 19.70121 | 2731 ft | 130 kts | 174° |
| 2026-05-08 22:15 | 41.55068 | 19.70242 | 2554 ft | 129 kts | 174° |
| 2026-05-08 22:15 | 41.54172 | 19.70362 | 2394 ft | 130 kts | 174° |
| 2026-05-08 22:15 | 41.53287 | 19.70480 | 2224 ft | 129 kts | 173° |
| 2026-05-08 22:15 | 41.52390 | 19.70600 | 2057 ft | 130 kts | 174° |
| 2026-05-08 22:16 | 41.51491 | 19.70720 | 1880 ft | 130 kts | 173° |
| 2026-05-08 22:16 | 41.50584 | 19.70841 | 1698 ft | 131 kts | 173° |
| 2026-05-08 22:16 | 41.49680 | 19.70962 | 1520 ft | 131 kts | 173° |
| 2026-05-08 22:16 | 41.48766 | 19.71084 | 1342 ft | 132 kts | 174° |
| 2026-05-08 22:17 | 41.47852 | 19.71206 | 1163 ft | 131 kts | 174° |
| 2026-05-08 22:17 | 41.46946 | 19.71327 | 991 ft | 131 kts | 174° |
| 2026-05-08 22:17 | 41.46043 | 19.71448 | 815 ft | 130 kts | 174° |
| 2026-05-08 22:17 | 41.45146 | 19.71567 | 643 ft | 130 kts | 174° |
| 2026-05-08 22:18 | 41.44249 | 19.71687 | 467 ft | 129 kts | 174° |
| 2026-05-08 22:18 | 41.43356 | 19.71806 | 302 ft | 129 kts | 173° |
| 2026-05-08 22:18 | 41.42464 | 19.71926 | 152 ft | 128 kts | 173° |
| 2026-05-08 22:18 | 41.41652 | 19.72038 | 120 ft | 100 kts | 175° |
| 2026-05-08 22:19 | 41.41118 | 19.72117 | 126 ft | 56 kts | 178° |
| 2026-05-08 22:19 | 41.40791 | 19.72147 | 128 ft | 34 kts | 173° |
| 2026-05-08 22:19 | 41.40685 | 19.72111 | 132 ft | 16 kts | 245° |
| 2026-05-08 22:19 | 41.40661 | 19.71973 | 129 ft | 0 kts | 258° |
| 2026-05-08 22:20 | 41.40654 | 19.71931 | 131 ft | 9 kts | 257° |
| 2026-05-08 22:20 | 41.40633 | 19.71824 | 126 ft | 14 kts | 257° |
| 2026-05-08 22:21 | 41.40683 | 19.71752 | 126 ft | 13 kts | 352° |
| 2026-05-08 22:21 | 41.40785 | 19.71738 | 143 ft | 17 kts | 355° |
| 2026-05-08 22:21 | 41.40912 | 19.71719 | 142 ft | 20 kts | 353° |
| 2026-05-08 22:21 | 41.41056 | 19.71701 | 144 ft | 19 kts | 354° |
| 2026-05-08 22:22 | 41.41195 | 19.71683 | 142 ft | 22 kts | 354° |
| 2026-05-08 22:22 | 41.41336 | 19.71664 | 136 ft | 21 kts | 354° |
| 2026-05-08 22:22 | 41.41484 | 19.71643 | 138 ft | 22 kts | 354° |
| 2026-05-08 22:22 | 41.41638 | 19.71623 | 138 ft | 23 kts | 353° |
| 2026-05-08 22:23 | 41.41790 | 19.71602 | 131 ft | 21 kts | 354° |
| 2026-05-08 22:23 | 41.41907 | 19.71587 | 132 ft | 14 kts | 354° |
| 2026-05-08 22:23 | 41.41941 | 19.71581 | 134 ft | 4 kts | 342° |
| 2026-05-08 22:23 | 41.41951 | 19.71536 | 133 ft | 6 kts | 258° |
| 2026-05-08 22:24 | 41.41950 | 19.71512 | 132 ft | 0 kts | 265° |